BIARBGBW

Guest
Details From BIAR - Akureyri
To BGBW - Narsarsuaq
Flight Number -
Tags decoded
Created
Modified
Stats Distance 813 nm / 1,506 km
Max Altitude 0 ft / 0 m
Waypoints 8
Social Downloads 3
Likes 0
Share VATSIM

Download

Looking for another format? Having issues loading an existing format? Contact us
Advertisement - Login to hide

Notes

Requested: BIAR PERUR Y149 TERTU G1 KEF 63N030W 62N035W NA BGBW Unmatched points: PERUR Y149

Route

BIAR TERTU G1 KEF 63N030W 62N035W NA BGBW

ID Type Via Altitude Latitude Longitude Leg Dist Tot Dist Heading (true) Name
O BIAR APT - 0 ft / 0 m 65.65657˚ -18.07197˚ - 0 nm - Akureyri
TERTU FIX - 0 ft / 0 m 64.43417˚ -21.72861˚ 118 nm 118 nm 233° / 230° -
SA NDB G1 (AWY-HI) 0 ft / 0 m 64.30544˚ -21.97128˚ 9 nm 128 nm 219° / 219° SKAGI NDB
KEF VOR G1 (AWY-LO) 0 ft / 0 m 63.98681˚ -22.61450˚ 25 nm 153 nm 222° / 221° KEFLAVIK VORTAC
63N030W LATLON - 0 ft / 0 m 63.00000˚ -30.00000˚ 206 nm 360 nm 257° / 250° -
62N035W LATLON - 0 ft / 0 m 62.00000˚ -35.00000˚ 151 nm 511 nm 249° / 244° -
NA NDB - 0 ft / 0 m 61.17074˚ -45.41295˚ 301 nm 812 nm 265° / 256° NARSARSUAQ NDB
O BGBW APT - 0 ft / 0 m 61.16052˚ -45.42598˚ 0 nm 813 nm 212° / 212° Narsarsuaq

Altitude Profile

Advertisement - Login to hide

Weather


0- 5 10 15 20 25 30 35+ Temperature / ° C

Clouds and Precipitation
Forecast for 2017-12-14 06:00 UTC. Updated 2 hours ago

Ground ~20,000 ft ~40,000 ft Winds

BIAR

Details ICAO BIAR (AEY)
Name Akureyri
Region Iceland
Timezone Unknown (UTC+0.0)
Stats Elevation 5 ft / 2 m (AMSL)
Location 65.656574° -18.071975°
Runways 1
Magnetic Variation 12.295° W

METAR

BIAR 140400Z 36006KT 9999 BKN037 BKN054 01/M00 Q0998

Decode

TAF

TAF BIAR 140101Z 1403/1503 36008KT 9999 SCT020 BKN035 TX00/1403Z TNM06/1503Z TEMPO 1403/1503 4000 SHSN BKN012

Decode

Departure Runways

ID Width Length Bearing (true) Bearing (mag) Surface Threshold Offset Overrun Length
01 148 ft / 45 m 7,855 ft / 2,394 m 355.54° 7.83° Asphalt 0 ft / 0 m 0 ft / 0 m
19 148 ft / 45 m 7,855 ft / 2,394 m 175.54° 187.83° Asphalt 0 ft / 0 m 0 ft / 0 m

BGBW

Details ICAO BGBW (UAK)
Name Narsarsuaq
Region Greenland
Timezone America/Godthab (UTC-3.0)
Stats Elevation 112 ft / 34 m (AMSL)
Location 61.160516° -45.425976°
Runways 1
Magnetic Variation 22.906° W

METAR

BGBW 140350Z AUTO 07009KT 9999NDV FEW220/// M09/M18 Q1017

Decode

TAF

Not found

Destination Runways

ID Width Length Bearing (true) Bearing (mag) Surface Threshold Offset Overrun Length
07 148 ft / 45 m 5,921 ft / 1,805 m 40.57° 63.48° Concrete 0 ft / 0 m 0 ft / 0 m
25 148 ft / 45 m 5,921 ft / 1,805 m 220.58° 243.49° Concrete 0 ft / 0 m 279 ft / 85 m

Popular Alternatives